Time;durP1;ratioP1;P1;durP2;ratioP2;P2;SDS_P1;SDS_P2;PMS_P1;PMS_P2;Temp;Humidity;BMP_temperature;BMP_pressure;BME280_temperature;BME280_humidity;BME280_pressure;Samples;Min_cycle;Max_cycle;Signal;HPM_P1;HPM_P2
2023/06/27 00:00:21;;;;;;;6.97;2.53;;;14.70;99.90;;;;;;5051884;28;20051;-84
2023/06/27 00:02:47;;;;;;;8.43;3.10;;;14.60;99.90;;;;;;5020903;28;20052;-83
2023/06/27 00:05:13;;;;;;;6.07;2.63;;;14.60;99.90;;;;;;5054690;28;20045;-83
2023/06/27 00:07:42;;;;;;;5.43;2.80;;;14.60;99.90;;;;;;5036756;28;20487;-83
2023/06/27 00:10:11;;;;;;;6.93;3.30;;;14.60;99.90;;;;;;5035862;28;20041;-83
2023/06/27 00:12:37;;;;;;;6.45;2.70;;;14.60;99.90;;;;;;5054887;28;20048;-84
2023/06/27 00:15:07;;;;;;;5.43;2.80;;;14.60;99.90;;;;;;5037004;28;20052;-83
2023/06/27 00:17:34;;;;;;;8.00;3.13;;;14.60;99.90;;;;;;5051530;28;20044;-84
2023/06/27 00:20:01;;;;;;;3.33;2.60;;;14.60;99.90;;;;;;5045767;28;20506;-83
2023/06/27 00:22:27;;;;;;;7.55;3.47;;;14.60;99.90;;;;;;5017094;28;20041;-83
2023/06/27 00:24:54;;;;;;;7.05;2.88;;;14.50;99.90;;;;;;5037916;28;20499;-84
2023/06/27 00:27:20;;;;;;;4.88;2.67;;;14.50;99.90;;;;;;5042520;28;20045;-83
2023/06/27 00:29:46;;;;;;;6.97;2.65;;;14.50;99.90;;;;;;5038801;28;20480;-82
2023/06/27 00:32:12;;;;;;;4.75;2.90;;;14.50;99.90;;;;;;5046374;28;20095;-81
2023/06/27 00:34:37;;;;;;;5.57;2.67;;;14.50;99.90;;;;;;5054834;28;20060;-81
2023/06/27 00:37:03;;;;;;;5.75;2.63;;;14.50;99.90;;;;;;5050708;28;20042;-81
2023/06/27 00:39:31;;;;;;;5.15;3.10;;;14.50;99.90;;;;;;5050213;28;20355;-81
2023/06/27 00:41:58;;;;;;;5.07;3.30;;;14.50;99.90;;;;;;5052106;28;20380;-82
2023/06/27 00:44:24;;;;;;;7.10;3.10;;;14.50;99.90;;;;;;5051520;28;20346;-82
2023/06/27 00:46:51;;;;;;;8.88;3.17;;;14.50;99.90;;;;;;5053701;28;20037;-81
2023/06/27 00:49:19;;;;;;;5.35;2.97;;;14.50;99.90;;;;;;5054496;28;20044;-81
2023/06/27 00:51:47;;;;;;;9.18;3.53;;;14.40;99.90;;;;;;5039584;28;20052;-81
2023/06/27 00:54:13;;;;;;;3.97;3.03;;;14.40;99.90;;;;;;5039600;28;20430;-81
2023/06/27 00:56:39;;;;;;;6.70;2.60;;;14.40;99.90;;;;;;5069819;28;20106;-80
2023/06/27 00:59:05;;;;;;;6.75;3.00;;;14.30;99.90;;;;;;5061944;28;20041;-80
2023/06/27 01:01:31;;;;;;;5.90;2.67;;;14.30;99.90;;;;;;5062849;28;20060;-82
2023/06/27 01:03:57;;;;;;;4.88;3.30;;;14.30;99.90;;;;;;5044395;28;20033;-81
2023/06/27 01:06:53;;;;;;;5.72;2.80;;;14.20;99.90;;;;;;5073460;28;20080;-83
2023/06/27 01:09:22;;;;;;;5.30;2.65;;;14.20;99.90;;;;;;5064614;28;20094;-82
2023/06/27 01:11:57;;;;;;;7.22;2.83;;;14.20;99.90;;;;;;5059315;28;20120;-82
2023/06/27 01:14:25;;;;;;;4.22;2.83;;;14.10;99.90;;;;;;5060682;28;20052;-82
2023/06/27 01:16:52;;;;;;;5.63;2.85;;;14.10;99.90;;;;;;5061155;28;20043;-81
2023/06/27 01:19:25;;;;;;;6.70;3.38;;;14.10;99.90;;;;;;5060561;28;20049;-81
2023/06/27 01:21:59;;;;;;;3.95;2.80;;;14.10;99.90;;;;;;5063673;28;20055;-82
2023/06/27 01:24:26;;;;;;;4.88;3.00;;;14.00;99.90;;;;;;5061325;28;20051;-82
2023/06/27 01:26:52;;;;;;;6.35;3.00;;;14.00;99.90;;;;;;5045651;28;20430;-82
2023/06/27 01:29:17;;;;;;;6.68;3.53;;;14.00;99.90;;;;;;5060860;28;20051;-82
2023/06/27 01:31:52;;;;;;;4.88;3.13;;;14.00;99.90;;;;;;5051625;28;20046;-82
2023/06/27 01:34:59;;;;;;;6.28;3.60;;;14.00;99.90;;;;;;5057078;28;20071;-82
2023/06/27 01:37:36;;;;;;;6.40;2.88;;;14.00;99.90;;;;;;4981213;28;20153;-80
2023/06/27 01:40:08;;;;;;;4.57;3.20;;;13.90;99.90;;;;;;4980601;28;20050;-81
2023/06/27 01:42:42;;;;;;;5.28;3.35;;;13.90;99.90;;;;;;4981368;28;20055;-82
2023/06/27 01:45:09;;;;;;;5.18;3.22;;;13.90;99.90;;;;;;4968968;28;20051;-83
2023/06/27 01:47:38;;;;;;;6.72;3.55;;;13.80;99.90;;;;;;4943926;29;20111;-82
2023/06/27 01:50:04;;;;;;;6.38;3.70;;;13.90;99.90;;;;;;4957044;28;20042;-82
2023/06/27 01:52:29;;;;;;;4.68;3.35;;;13.80;99.90;;;;;;4971073;28;20523;-82
2023/06/27 01:54:56;;;;;;;6.40;3.58;;;13.90;99.90;;;;;;4974499;28;20708;-82
2023/06/27 01:57:21;;;;;;;6.60;3.65;;;13.90;99.90;;;;;;4972161;28;20509;-82
2023/06/27 01:59:47;;;;;;;6.60;3.70;;;13.80;99.90;;;;;;4934371;28;20047;-82
2023/06/27 02:02:13;;;;;;;5.32;3.60;;;13.80;99.90;;;;;;4975369;28;20054;-82
2023/06/27 02:04:38;;;;;;;7.80;4.03;;;13.80;99.90;;;;;;4979294;28;20075;-82
2023/06/27 02:07:04;;;;;;;5.60;3.65;;;13.80;99.90;;;;;;4962177;28;20059;-82
2023/06/27 02:09:30;;;;;;;7.05;4.00;;;13.80;99.90;;;;;;4979368;28;20057;-82
2023/06/27 02:11:56;;;;;;;4.85;3.65;;;13.80;99.90;;;;;;4979130;28;20047;-82
2023/06/27 02:14:21;;;;;;;4.97;3.70;;;13.80;99.90;;;;;;5009399;28;20487;-82
2023/06/27 02:16:47;;;;;;;5.90;3.70;;;14.40;99.90;;;;;;5060112;28;20124;-82
2023/06/27 02:19:13;;;;;;;6.35;3.78;;;13.70;99.90;;;;;;5060371;28;20045;-83
2023/06/27 02:21:38;;;;;;;6.50;3.67;;;13.60;99.90;;;;;;5060772;28;20045;-82
2023/06/27 02:24:04;;;;;;;10.10;4.22;;;13.70;99.90;;;;;;5061585;28;20085;-82
2023/06/27 02:26:30;;;;;;;5.85;3.80;;;13.80;99.90;;;;;;5060666;28;20037;-82
2023/06/27 02:28:55;;;;;;;7.22;3.70;;;13.70;99.90;;;;;;5060403;28;20048;-82
2023/06/27 02:31:21;;;;;;;7.57;4.18;;;13.70;99.90;;;;;;5039487;28;20048;-82
2023/06/27 02:33:47;;;;;;;7.53;3.80;;;13.60;99.90;;;;;;5042367;28;20119;-82
2023/06/27 02:36:12;;;;;;;7.60;4.00;;;13.60;99.90;;;;;;5060429;28;20049;-82
2023/06/27 02:38:38;;;;;;;8.52;4.28;;;13.50;99.90;;;;;;5043745;28;20063;-81
2023/06/27 02:41:04;;;;;;;6.93;3.83;;;13.60;99.90;;;;;;5063395;28;20045;-81
2023/06/27 02:43:29;;;;;;;6.50;4.15;;;13.70;99.90;;;;;;5062810;28;20072;-81
2023/06/27 02:45:55;;;;;;;8.73;4.20;;;13.70;99.90;;;;;;5060711;28;20116;-81
2023/06/27 02:48:21;;;;;;;9.18;4.43;;;13.70;99.90;;;;;;5044714;28;20103;-81
2023/06/27 02:50:50;;;;;;;5.82;4.30;;;13.60;99.90;;;;;;5043399;28;20037;-82
2023/06/27 02:53:16;;;;;;;8.13;4.45;;;13.60;99.90;;;;;;5053971;28;20511;-82
2023/06/27 02:55:42;;;;;;;9.10;5.22;;;13.90;99.90;;;;;;5055273;28;20052;-81
2023/06/27 02:58:08;;;;;;;6.80;4.43;;;13.70;99.90;;;;;;5054128;28;20042;-82
2023/06/27 03:00:33;;;;;;;8.02;4.88;;;13.70;99.90;;;;;;5054594;28;20072;-82
2023/06/27 03:02:59;;;;;;;9.02;4.80;;;13.50;99.90;;;;;;5039052;28;20073;-81
2023/06/27 03:05:25;;;;;;;8.10;4.95;;;13.50;99.90;;;;;;5056166;28;20041;-81
2023/06/27 03:07:50;;;;;;;8.82;5.10;;;13.90;99.90;;;;;;5052059;28;20056;-80
2023/06/27 03:10:16;;;;;;;10.25;5.43;;;13.50;99.90;;;;;;5055645;28;20041;-82
2023/06/27 03:12:41;;;;;;;9.93;5.22;;;13.70;99.90;;;;;;5054120;28;20395;-82
2023/06/27 03:15:07;;;;;;;6.05;5.00;;;13.70;99.90;;;;;;5057636;28;20040;-82
2023/06/27 03:17:33;;;;;;;9.88;5.05;;;13.70;99.90;;;;;;5051591;28;20123;-82
2023/06/27 03:19:59;;;;;;;8.70;5.30;;;13.50;99.90;;;;;;5050373;28;20049;-81
2023/06/27 03:22:24;;;;;;;11.55;5.60;;;13.60;99.90;;;;;;5050364;28;20040;-83
2023/06/27 03:24:50;;;;;;;7.68;5.82;;;13.60;99.90;;;;;;5031928;28;20649;-84
2023/06/27 03:27:23;;;;;;;10.00;5.18;;;13.80;99.90;;;;;;5053070;28;20143;-83
2023/06/27 03:29:50;;;;;;;7.10;4.93;;;13.70;99.90;;;;;;5051239;28;20039;-83
2023/06/27 03:32:15;;;;;;;10.20;6.05;;;13.90;99.90;;;;;;5054692;28;20072;-82
2023/06/27 03:34:42;;;;;;;8.65;5.43;;;13.80;99.90;;;;;;5034222;28;20040;-83
2023/06/27 03:37:07;;;;;;;8.48;5.70;;;13.80;99.90;;;;;;5054815;28;20037;-82
2023/06/27 03:39:33;;;;;;;9.40;5.57;;;13.70;99.90;;;;;;5053681;28;20482;-84
2023/06/27 03:41:59;;;;;;;8.98;5.53;;;13.70;99.90;;;;;;5036240;28;20162;-83
2023/06/27 03:44:25;;;;;;;9.35;5.40;;;13.80;99.90;;;;;;5035448;28;20103;-84
2023/06/27 03:46:51;;;;;;;12.85;6.35;;;13.80;99.90;;;;;;5037506;28;20056;-83
2023/06/27 03:49:17;;;;;;;11.68;6.35;;;13.90;99.90;;;;;;5052572;28;20047;-83
2023/06/27 03:51:42;;;;;;;11.45;6.18;;;14.00;99.90;;;;;;5031281;28;20045;-83
2023/06/27 03:54:09;;;;;;;10.35;6.25;;;13.90;99.90;;;;;;5049382;28;20086;-84
2023/06/27 03:56:35;;;;;;;10.10;6.30;;;14.00;99.90;;;;;;5049753;28;20048;-83
2023/06/27 03:59:00;;;;;;;7.55;5.50;;;14.10;99.90;;;;;;5050709;28;20685;-84
2023/06/27 04:01:26;;;;;;;10.85;6.45;;;14.10;99.90;;;;;;5032026;28;20041;-84
2023/06/27 04:03:52;;;;;;;10.63;6.28;;;14.10;99.90;;;;;;5051858;28;20036;-82
2023/06/27 04:06:21;;;;;;;8.07;6.47;;;14.20;99.90;;;;;;5057444;28;20121;-82
2023/06/27 04:08:47;;;;;;;11.25;6.28;;;14.20;99.90;;;;;;5057362;28;20052;-82
2023/06/27 04:11:13;;;;;;;13.23;6.07;;;14.30;99.90;;;;;;5041614;28;20104;-82
2023/06/27 04:13:38;;;;;;;9.57;6.65;;;14.30;99.90;;;;;;5058395;28;20033;-82
2023/06/27 04:16:04;;;;;;;11.70;6.80;;;14.40;99.90;;;;;;5042110;28;20108;-82
2023/06/27 04:18:30;;;;;;;11.98;7.07;;;14.40;99.90;;;;;;5038320;28;20045;-82
2023/06/27 04:20:57;;;;;;;11.10;6.40;;;14.50;99.90;;;;;;5056526;28;20048;-82
2023/06/27 04:23:23;;;;;;;9.50;6.20;;;14.60;99.90;;;;;;5055957;28;20133;-82
2023/06/27 04:26:07;;;;;;;11.68;6.80;;;14.60;99.90;;;;;;5056122;28;20696;-82
2023/06/27 04:28:34;;;;;;;13.52;7.00;;;14.80;99.90;;;;;;5064277;28;20089;-82
2023/06/27 04:31:01;;;;;;;9.75;6.68;;;14.80;99.90;;;;;;5065615;28;20045;-82
2023/06/27 04:33:30;;;;;;;14.63;6.87;;;14.90;99.90;;;;;;5067184;28;20048;-82
2023/06/27 04:36:03;;;;;;;11.73;6.45;;;15.00;99.90;;;;;;5064869;28;20045;-83
2023/06/27 04:38:30;;;;;;;12.20;7.53;;;15.40;99.90;;;;;;5065619;28;20045;-82
2023/06/27 04:40:55;;;;;;;10.45;6.80;;;16.60;99.90;;;;;;5062922;28;20041;-83
2023/06/27 04:43:22;;;;;;;7.90;6.30;;;17.60;99.90;;;;;;5047981;28;20049;-82
2023/06/27 04:45:47;;;;;;;10.18;6.03;;;18.70;99.90;;;;;;5063336;28;20045;-82
2023/06/27 04:48:13;;;;;;;10.88;6.82;;;19.60;99.90;;;;;;5061777;28;20033;-82
2023/06/27 04:50:39;;;;;;;9.73;6.03;;;20.40;99.90;;;;;;5048553;28;20506;-82
2023/06/27 04:53:04;;;;;;;8.75;5.90;;;20.90;99.90;;;;;;5045349;28;20048;-82
2023/06/27 04:55:31;;;;;;;9.88;6.00;;;21.60;99.90;;;;;;5061191;28;20037;-83
2023/06/27 04:57:57;;;;;;;10.07;5.90;;;22.60;99.90;;;;;;5026570;28;20391;-86
2023/06/27 05:00:23;;;;;;;8.35;5.53;;;22.50;99.90;;;;;;5054340;28;20041;-83
2023/06/27 05:02:50;;;;;;;8.93;5.25;;;23.00;99.90;;;;;;5056892;28;20370;-84
2023/06/27 05:05:16;;;;;;;8.40;5.18;;;23.30;99.90;;;;;;5056764;28;20044;-84
2023/06/27 05:07:45;;;;;;;9.48;5.70;;;23.70;99.90;;;;;;5037569;28;20053;-83
2023/06/27 05:10:10;;;;;;;9.32;5.20;;;24.10;99.90;;;;;;5056504;28;20392;-82
2023/06/27 05:12:36;;;;;;;8.80;4.68;;;24.40;99.90;;;;;;5053328;28;20036;-83
2023/06/27 05:15:04;;;;;;;7.40;4.65;;;24.90;99.90;;;;;;5055025;28;20033;-82
2023/06/27 05:17:29;;;;;;;;;;;25.00;99.90;;;;;;5055620;28;20403;-82
2023/06/27 05:19:55;;;;;;;10.43;5.15;;;25.30;99.90;;;;;;5048584;28;19936;-83
2023/06/27 05:22:21;;;;;;;9.18;4.97;;;25.60;99.90;;;;;;5053700;28;20037;-82
2023/06/27 05:24:46;;;;;;;7.28;5.03;;;26.00;99.90;;;;;;5048453;28;20079;-84
2023/06/27 05:27:12;;;;;;;7.80;5.00;;;26.20;99.90;;;;;;5051423;28;20079;-82
2023/06/27 05:29:37;;;;;;;7.95;4.93;;;26.50;99.90;;;;;;5049184;28;20049;-83
2023/06/27 05:32:03;;;;;;;10.82;4.72;;;27.00;99.90;;;;;;5052397;28;20134;-84
2023/06/27 05:34:29;;;;;;;9.50;4.97;;;27.10;99.90;;;;;;5029964;28;20051;-84
2023/06/27 05:36:55;;;;;;;10.32;4.88;;;27.20;99.60;;;;;;5050189;28;20037;-82
2023/06/27 05:39:20;;;;;;;8.70;4.43;;;27.20;99.90;;;;;;5051547;28;20083;-84
2023/06/27 05:41:46;;;;;;;10.20;5.03;;;27.30;98.90;;;;;;5053733;28;20041;-81
2023/06/27 05:44:11;;;;;;;7.32;4.38;;;27.30;99.00;;;;;;5054356;28;20049;-80
2023/06/27 05:46:39;;;;;;;7.45;4.07;;;27.70;98.90;;;;;;5056146;28;20037;-80
2023/06/27 05:49:05;;;;;;;9.38;4.70;;;27.70;98.20;;;;;;5060111;28;20041;-80
2023/06/27 05:51:31;;;;;;;8.43;4.43;;;27.90;98.30;;;;;;5042609;28;20406;-80
2023/06/27 05:53:57;;;;;;;10.23;4.10;;;28.00;97.80;;;;;;5058297;28;20061;-81
2023/06/27 05:56:22;;;;;;;7.57;4.40;;;28.30;97.60;;;;;;5054901;28;20041;-81
2023/06/27 05:58:48;;;;;;;7.57;3.60;;;28.50;96.80;;;;;;5053393;28;20037;-81
2023/06/27 06:01:14;;;;;;;6.00;3.40;;;28.70;97.20;;;;;;5058843;28;20048;-81
2023/06/27 06:03:40;;;;;;;7.93;3.70;;;28.80;96.70;;;;;;5061970;28;20051;-81
2023/06/27 06:06:06;;;;;;;8.63;4.63;;;28.70;96.40;;;;;;5039131;28;20083;-81
2023/06/27 06:08:32;;;;;;;8.80;3.60;;;28.90;96.70;;;;;;5041915;28;20049;-80
2023/06/27 06:10:58;;;;;;;5.63;3.22;;;29.10;95.90;;;;;;5040607;28;20049;-80
2023/06/27 06:13:23;;;;;;;6.60;3.30;;;29.20;95.40;;;;;;5046508;28;20407;-81
2023/06/27 06:15:49;;;;;;;4.40;3.05;;;29.30;95.40;;;;;;5060399;28;20162;-82
2023/06/27 06:18:15;;;;;;;8.40;3.72;;;29.60;95.00;;;;;;5039387;28;20041;-84
2023/06/27 06:20:40;;;;;;;6.72;3.30;;;29.50;94.80;;;;;;5056515;28;20044;-83
2023/06/27 06:23:06;;;;;;;5.18;2.70;;;29.70;94.50;;;;;;5055435;28;20407;-83
2023/06/27 06:25:31;;;;;;;8.73;2.88;;;29.60;94.00;;;;;;5041061;28;20044;-82
2023/06/27 06:27:57;;;;;;;6.53;2.72;;;29.70;93.70;;;;;;5054396;28;20033;-82
2023/06/27 06:30:23;;;;;;;6.57;2.72;;;29.90;93.80;;;;;;5034245;28;20037;-83
2023/06/27 06:32:49;;;;;;;8.82;2.78;;;30.00;93.70;;;;;;5033652;28;20065;-84
2023/06/27 06:35:14;;;;;;;7.07;2.72;;;29.70;92.30;;;;;;5036320;28;20136;-83
2023/06/27 06:37:40;;;;;;;4.85;2.20;;;29.70;93.00;;;;;;5053139;28;20033;-82
2023/06/27 06:40:06;;;;;;;6.70;2.40;;;29.60;93.00;;;;;;5053573;28;20045;-82
2023/06/27 06:42:32;;;;;;;10.00;2.43;;;29.70;93.20;;;;;;5053128;28;20045;-83
2023/06/27 06:44:58;;;;;;;7.25;2.28;;;29.80;92.80;;;;;;5051465;28;20041;-82
2023/06/27 06:47:24;;;;;;;9.57;2.33;;;29.60;92.50;;;;;;5048866;28;20076;-83
2023/06/27 06:49:50;;;;;;;5.25;1.50;;;29.10;92.20;;;;;;5030738;28;20076;-83
2023/06/27 06:52:16;;;;;;;6.93;2.00;;;28.70;91.80;;;;;;5054918;28;20044;-82
2023/06/27 06:54:43;;;;;;;7.85;1.88;;;28.90;92.50;;;;;;5049830;28;20083;-82
2023/06/27 06:57:10;;;;;;;4.50;2.10;;;29.30;92.20;;;;;;5052037;28;20056;-83
2023/06/27 06:59:35;;;;;;;3.85;1.40;;;29.50;91.80;;;;;;5055146;28;20049;-83
2023/06/27 07:02:01;;;;;;;5.35;1.50;;;29.30;90.60;;;;;;5033858;28;20045;-84
2023/06/27 07:04:27;;;;;;;5.22;1.77;;;29.30;89.60;;;;;;5047300;28;20029;-79
2023/06/27 07:06:52;;;;;;;7.05;1.48;;;29.50;90.70;;;;;;5028582;28;20051;-78
2023/06/27 07:09:18;;;;;;;3.63;1.40;;;28.90;89.80;;;;;;5046717;28;20091;-80
2023/06/27 07:11:44;;;;;;;4.30;1.38;;;28.60;89.40;;;;;;5048949;28;20049;-79
2023/06/27 07:14:09;;;;;;;3.05;1.20;;;28.20;89.50;;;;;;5047827;28;20037;-78
2023/06/27 07:16:35;;;;;;;7.18;1.33;;;27.30;87.60;;;;;;5031480;28;20052;-79
2023/06/27 07:19:02;;;;;;;6.47;1.38;;;27.50;90.20;;;;;;5031824;28;20040;-79
2023/06/27 07:21:28;;;;;;;3.95;1.00;;;27.40;90.50;;;;;;5045935;28;20036;-79
2023/06/27 07:23:53;;;;;;;3.58;1.27;;;27.30;89.20;;;;;;5045006;28;20728;-79
2023/06/27 07:26:19;;;;;;;3.65;1.00;;;27.50;89.40;;;;;;5045279;28;20052;-78
2023/06/27 07:28:45;;;;;;;3.00;0.90;;;27.80;90.10;;;;;;5047689;28;20527;-81
2023/06/27 07:31:10;;;;;;;3.13;1.02;;;27.40;90.00;;;;;;5051177;28;20380;-78
2023/06/27 07:33:36;;;;;;;3.95;1.45;;;27.00;90.00;;;;;;5036242;28;20051;-82
2023/06/27 07:36:02;;;;;;;3.40;1.10;;;26.60;89.60;;;;;;5035127;28;20389;-83
2023/06/27 07:38:27;;;;;;;5.40;1.20;;;26.30;90.40;;;;;;5035905;28;20506;-79
2023/06/27 07:40:53;;;;;;;1.85;0.98;;;26.60;90.00;;;;;;5049516;28;20045;-81
2023/06/27 07:43:19;;;;;;;3.83;1.23;;;27.00;90.40;;;;;;5053897;28;20048;-80
2023/06/27 07:45:45;;;;;;;3.72;1.13;;;27.10;90.60;;;;;;5016016;28;20588;-83
2023/06/27 07:48:10;;;;;;;3.92;1.27;;;26.70;90.50;;;;;;5054969;28;20495;-80
2023/06/27 07:50:36;;;;;;;4.20;1.10;;;26.30;90.50;;;;;;5048182;28;20120;-79
2023/06/27 07:53:01;;;;;;;2.83;1.20;;;25.60;89.70;;;;;;5035912;28;20037;-79
2023/06/27 07:55:27;;;;;;;4.38;0.90;;;25.20;89.50;;;;;;5056497;28;20041;-79
2023/06/27 07:57:53;;;;;;;4.90;1.30;;;24.80;90.50;;;;;;5072701;28;20057;-79
2023/06/27 08:00:20;;;;;;;4.40;1.30;;;24.40;90.80;;;;;;5038753;28;20045;-80
2023/06/27 08:02:45;;;;;;;7.18;1.10;;;24.40;91.40;;;;;;5037147;28;20044;-79
2023/06/27 08:05:11;;;;;;;4.07;1.38;;;24.40;92.00;;;;;;5056230;28;20103;-81
2023/06/27 08:07:37;;;;;;;3.78;1.00;;;24.30;92.50;;;;;;5056056;28;20390;-83
2023/06/27 08:10:04;;;;;;;4.65;1.17;;;24.30;93.10;;;;;;5055482;28;20106;-81
2023/06/27 08:12:30;;;;;;;3.67;1.33;;;24.20;92.90;;;;;;5015867;28;20065;-81
2023/06/27 08:14:55;;;;;;;2.47;1.10;;;24.30;93.70;;;;;;5059826;28;20060;-81
2023/06/27 08:17:21;;;;;;;6.85;1.40;;;24.20;93.50;;;;;;5057225;28;20391;-81
2023/06/27 08:19:48;;;;;;;9.80;1.48;;;24.10;93.80;;;;;;5046318;28;20044;-81
2023/06/27 08:22:16;;;;;;;11.10;2.15;;;24.10;94.10;;;;;;5057139;28;20041;-81
2023/06/27 08:24:42;;;;;;;6.90;1.10;;;24.00;93.90;;;;;;5058511;28;20041;-81
2023/06/27 08:27:08;;;;;;;4.32;1.23;;;24.20;93.50;;;;;;5042324;28;20044;-81
2023/06/27 08:29:33;;;;;;;6.57;1.20;;;24.30;93.70;;;;;;5060046;28;20072;-81
2023/06/27 08:31:59;;;;;;;14.23;2.25;;;24.50;93.60;;;;;;5056346;28;20527;-80
2023/06/27 08:34:31;;;;;;;8.88;1.00;;;24.40;92.60;;;;;;5031012;28;20045;-80
2023/06/27 08:36:58;;;;;;;14.35;1.95;;;24.10;91.90;;;;;;5042386;28;20049;-81
2023/06/27 08:39:24;;;;;;;4.33;1.00;;;24.20;92.10;;;;;;5048654;28;20105;-80
2023/06/27 08:41:50;;;;;;;3.95;1.10;;;24.40;92.50;;;;;;5057719;28;20045;-80
2023/06/27 08:44:16;;;;;;;6.68;1.25;;;24.70;92.70;;;;;;5061060;28;20045;-80
2023/06/27 08:46:46;;;;;;;5.43;1.17;;;24.70;93.30;;;;;;5042088;28;20044;-81
2023/06/27 08:49:21;;;;;;;6.22;1.20;;;24.80;92.80;;;;;;5043506;28;20045;-81
2023/06/27 08:51:50;;;;;;;4.60;1.17;;;24.50;91.90;;;;;;5061259;28;20336;-80
2023/06/27 08:54:24;;;;;;;4.50;1.02;;;24.60;92.50;;;;;;5067943;28;20049;-81
2023/06/27 08:56:50;;;;;;;9.90;1.48;;;24.60;92.00;;;;;;5055315;28;20053;-80
2023/06/27 08:59:19;;;;;;;6.43;1.08;;;24.30;92.20;;;;;;5027715;28;20500;-80
2023/06/27 09:01:46;;;;;;;7.38;1.80;;;24.20;92.30;;;;;;5046526;28;20120;-79
2023/06/27 09:04:12;;;;;;;4.97;0.98;;;24.10;92.20;;;;;;5055730;28;20080;-79
2023/06/27 09:06:40;;;;;;;6.75;1.27;;;24.10;92.40;;;;;;5060001;28;20055;-79
2023/06/27 09:09:05;;;;;;;;;;;24.00;92.40;;;;;;5051563;28;20055;-79
2023/06/27 09:11:32;;;;;;;5.40;1.70;;;24.10;91.80;;;;;;5055946;28;19921;-79
2023/06/27 09:13:58;;;;;;;5.43;1.70;;;24.30;92.50;;;;;;5057648;28;20041;-80
2023/06/27 09:16:23;;;;;;;5.25;1.30;;;24.30;92.00;;;;;;5058218;28;20036;-79
2023/06/27 09:18:49;;;;;;;13.40;1.80;;;24.20;91.70;;;;;;5055316;28;20033;-79
2023/06/27 09:21:15;;;;;;;4.80;1.17;;;24.20;92.10;;;;;;5057577;28;20041;-79
2023/06/27 09:23:42;;;;;;;5.13;1.27;;;24.20;91.70;;;;;;5058921;28;20099;-79
2023/06/27 09:26:09;;;;;;;7.00;1.40;;;24.30;92.40;;;;;;5042270;28;20104;-79
2023/06/27 09:28:43;;;;;;;;;;;24.50;92.70;;;;;;5056401;28;20067;-79
2023/06/27 09:31:11;;;;;;;7.20;1.33;;;24.30;92.50;;;;;;5060894;28;19921;-80
2023/06/27 09:33:37;;;;;;;6.63;1.30;;;24.40;92.30;;;;;;5063913;28;20085;-79
2023/06/27 09:36:03;;;;;;;17.73;2.03;;;24.30;91.90;;;;;;5054968;28;20079;-79
2023/06/27 09:38:34;;;;;;;4.97;1.42;;;24.30;91.80;;;;;;5059917;28;20037;-79
2023/06/27 09:41:04;;;;;;;5.22;1.10;;;24.40;92.00;;;;;;5027989;28;20080;-79
2023/06/27 09:43:32;;;;;;;5.57;1.35;;;24.80;92.60;;;;;;5053895;28;20044;-79
2023/06/27 09:45:59;;;;;;;6.25;1.10;;;24.90;91.80;;;;;;5052634;28;20044;-79
2023/06/27 09:48:29;;;;;;;4.95;1.20;;;24.80;91.40;;;;;;5056553;28;20073;-80
2023/06/27 09:51:03;;;;;;;8.10;1.30;;;24.70;91.20;;;;;;5064427;28;20080;-79
2023/06/27 09:53:30;;;;;;;3.92;1.17;;;24.70;90.90;;;;;;5044360;28;20041;-80
2023/06/27 09:56:00;;;;;;;4.53;1.30;;;24.90;91.40;;;;;;5041013;28;20120;-79
2023/06/27 09:58:30;;;;;;;4.10;1.00;;;25.00;91.10;;;;;;5054761;28;20049;-79
2023/06/27 10:01:06;;;;;;;3.45;1.00;;;24.90;90.60;;;;;;5053259;28;20254;-80
2023/06/27 10:03:33;;;;;;;2.58;1.05;;;25.10;90.90;;;;;;5058917;28;20052;-80
2023/06/27 10:06:00;;;;;;;4.10;1.17;;;25.30;90.80;;;;;;5041599;28;20037;-79
2023/06/27 10:08:27;;;;;;;2.83;0.95;;;25.20;90.50;;;;;;5052135;28;20065;-80
2023/06/27 10:10:55;;;;;;;4.18;1.30;;;25.30;90.80;;;;;;5060315;28;20071;-79
2023/06/27 10:13:21;;;;;;;2.15;1.13;;;25.10;90.00;;;;;;5057640;28;20037;-79
2023/06/27 10:15:48;;;;;;;3.03;1.10;;;25.10;90.00;;;;;;5058523;28;20055;-80
2023/06/27 10:18:13;;;;;;;9.45;1.50;;;25.30;90.40;;;;;;5058851;28;20057;-80
2023/06/27 10:20:39;;;;;;;4.57;1.27;;;25.20;89.50;;;;;;5060157;28;20045;-80
2023/06/27 10:23:06;;;;;;;2.88;1.08;;;25.30;89.90;;;;;;5047603;28;20049;-80
2023/06/27 10:25:32;;;;;;;4.40;1.20;;;25.60;90.70;;;;;;5063640;28;20045;-79
2023/06/27 10:28:08;;;;;;;3.35;1.02;;;25.40;90.90;;;;;;5046107;28;20076;-80
2023/06/27 10:30:44;;;;;;;5.13;1.13;;;25.00;90.20;;;;;;5064523;28;20040;-80
2023/06/27 10:33:20;;;;;;;2.95;1.00;;;25.20;90.20;;;;;;5064222;28;20573;-79
2023/06/27 10:35:51;;;;;;;2.97;0.90;;;25.30;89.70;;;;;;5058778;28;20041;-80
2023/06/27 10:38:18;;;;;;;2.70;1.00;;;25.00;87.60;;;;;;5037302;28;20403;-79
2023/06/27 10:40:59;;;;;;;;;;;25.20;89.20;;;;;;5056236;28;20056;-80
2023/06/27 10:43:38;;;;;;;5.38;1.08;;;25.30;88.60;;;;;;5058284;28;19924;-79
2023/06/27 10:46:16;;;;;;;4.20;0.80;;;25.10;87.00;;;;;;5045326;28;20036;-79
2023/06/27 10:49:06;;;;;;;3.30;0.88;;;25.30;88.20;;;;;;5060299;28;20071;-80
2023/06/27 10:51:43;;;;;;;3.25;0.98;;;25.50;88.90;;;;;;5055964;28;20048;-80
2023/06/27 10:54:09;;;;;;;3.20;0.80;;;25.40;89.50;;;;;;5039500;28;22197;-80
2023/06/27 10:56:37;;;;;;;5.25;1.10;;;25.50;89.50;;;;;;5059468;28;20053;-80
2023/06/27 10:59:04;;;;;;;2.65;0.95;;;25.60;89.00;;;;;;5055870;28;20088;-80
2023/06/27 11:01:30;;;;;;;3.05;0.80;;;25.40;88.40;;;;;;5060669;28;20436;-80
2023/06/27 11:03:59;;;;;;;2.38;0.80;;;25.80;90.00;;;;;;5041051;28;20053;-78
2023/06/27 11:06:41;;;;;;;2.30;0.90;;;25.60;88.10;;;;;;5055091;28;20539;-79
2023/06/27 11:09:12;;;;;;;5.10;1.00;;;25.60;87.40;;;;;;5055377;28;20049;-79
2023/06/27 11:11:38;;;;;;;4.70;1.05;;;25.70;87.80;;;;;;5058063;28;20041;-79
2023/06/27 11:14:08;;;;;;;4.25;0.98;;;25.70;89.10;;;;;;5033552;28;20497;-79
2023/06/27 11:16:35;;;;;;;4.63;1.00;;;25.60;89.20;;;;;;5038460;28;20105;-79
2023/06/27 11:19:04;;;;;;;4.73;1.30;;;25.60;89.20;;;;;;5042978;28;20041;-78
2023/06/27 11:21:30;;;;;;;4.60;1.10;;;25.50;87.90;;;;;;5027863;28;20041;-79
2023/06/27 11:23:57;;;;;;;4.85;1.17;;;25.00;88.00;;;;;;5033625;28;20037;-79
2023/06/27 11:26:23;;;;;;;3.78;1.20;;;25.20;88.80;;;;;;5058850;28;20044;-78
2023/06/27 11:28:49;;;;;;;2.47;0.90;;;25.20;88.90;;;;;;5058129;28;20045;-79
2023/06/27 11:31:15;;;;;;;5.65;1.17;;;25.30;90.00;;;;;;5039587;28;20129;-79
2023/06/27 11:33:41;;;;;;;4.57;1.00;;;25.10;90.00;;;;;;5037937;28;20045;-79
2023/06/27 11:36:09;;;;;;;3.13;1.00;;;24.80;90.20;;;;;;5056972;28;20106;-79
2023/06/27 11:38:34;;;;;;;4.95;1.17;;;24.60;90.40;;;;;;5053326;28;20107;-79
2023/06/27 11:41:01;;;;;;;8.38;1.55;;;24.60;90.40;;;;;;5036765;28;20045;-79
2023/06/27 11:43:27;;;;;;;5.75;1.38;;;24.70;90.60;;;;;;5037509;28;20073;-79
2023/06/27 11:45:55;;;;;;;3.40;1.00;;;24.60;90.30;;;;;;5020220;28;20049;-78
2023/06/27 11:48:21;;;;;;;4.63;1.33;;;24.80;91.10;;;;;;5036083;28;20037;-78
2023/06/27 11:50:54;;;;;;;7.43;1.15;;;24.90;91.10;;;;;;5034774;28;20075;-79
2023/06/27 11:53:23;;;;;;;3.00;1.00;;;24.80;90.70;;;;;;5018215;28;20045;-79
2023/06/27 11:55:48;;;;;;;2.95;0.82;;;24.80;90.40;;;;;;5036176;28;20410;-78
2023/06/27 11:58:16;;;;;;;4.40;1.15;;;24.80;89.40;;;;;;5021540;28;20041;-78
2023/06/27 12:00:42;;;;;;;3.80;0.93;;;25.00;89.30;;;;;;5054239;28;20228;-78
2023/06/27 12:03:08;;;;;;;6.35;1.10;;;25.40;90.00;;;;;;5056331;28;20160;-78
2023/06/27 12:05:34;;;;;;;5.23;1.30;;;25.20;87.70;;;;;;5055347;28;20427;-79
2023/06/27 12:08:06;;;;;;;4.35;1.20;;;25.30;88.50;;;;;;5043439;28;20057;-79
2023/06/27 12:10:34;;;;;;;1.95;0.95;;;25.40;87.40;;;;;;5055347;28;20041;-79
2023/06/27 12:13:03;;;;;;;4.50;1.38;;;25.30;87.70;;;;;;5056141;28;20051;-79
2023/06/27 12:15:29;;;;;;;6.43;1.05;;;25.40;89.40;;;;;;5054433;28;20037;-79
2023/06/27 12:17:59;;;;;;;9.38;1.50;;;25.60;88.70;;;;;;5044240;28;20037;-81
2023/06/27 12:20:25;;;;;;;3.92;1.10;;;25.80;87.90;;;;;;5052018;28;20399;-81
2023/06/27 12:22:51;;;;;;;4.70;1.10;;;25.60;87.40;;;;;;5048036;28;20048;-80
2023/06/27 12:25:17;;;;;;;3.05;1.10;;;25.70;87.30;;;;;;5053004;28;20083;-80
2023/06/27 12:27:43;;;;;;;3.70;0.82;;;25.80;87.50;;;;;;5051569;28;20033;-80
2023/06/27 12:30:10;;;;;;;3.15;1.20;;;25.60;87.30;;;;;;5049986;28;20040;-80
2023/06/27 12:32:36;;;;;;;4.28;1.15;;;25.70;88.60;;;;;;5036646;28;20550;-81
2023/06/27 12:35:02;;;;;;;4.07;0.90;;;25.50;87.70;;;;;;5047045;28;20132;-80
2023/06/27 12:37:33;;;;;;;4.00;1.10;;;25.30;87.80;;;;;;5045091;28;20491;-80
2023/06/27 12:39:58;;;;;;;4.68;1.33;;;25.40;87.90;;;;;;5044919;28;20501;-80
2023/06/27 12:42:24;;;;;;;3.05;0.90;;;25.60;88.60;;;;;;5046795;28;20037;-80
2023/06/27 12:44:54;;;;;;;6.07;0.85;;;25.70;87.40;;;;;;5043567;28;20045;-80